Terminal Aerodrome Forecast
Issued by NWS Pocatello, ID

Home | Current Version | Previous Version | Text Only | Print | Product List | Glossary On
Versions: 1 2 3 4 5 6 7 8 9 10 11 12 13
157
FTUS45 KPIH 271728
TAFBYI
TAF
KBYI 271728Z 2718/2818 27015G25KT P6SM FEW025 FEW060
     FM272200 28015G25KT P6SM VCTS FEW025 FEW070CB
     FM280100 27010G20KT P6SM FEW060
     FM280300 25010KT P6SM SKC
     FM280800 20010KT P6SM SKC=

USA.gov is the U.S. government's official web portal to all federal, state and local government web resources and services.